Time;durP1;ratioP1;P1;durP2;ratioP2;P2;SDS_P1;SDS_P2;PMS_P1;PMS_P2;Temp;Humidity;BMP_temperature;BMP_pressure;BME280_temperature;BME280_humidity;BME280_pressure;Samples;Min_cycle;Max_cycle;Signal;HPM_P1;HPM_P2
2019/12/12 00:00:11;;;;;;;1.87;1.74;;;;;;;18.68;40.52;99636.45;;;;-50
2019/12/12 00:03:08;;;;;;;2.09;1.89;;;;;;;18.67;40.51;99638.09;;;;-50
2019/12/12 00:06:08;;;;;;;1.90;1.80;;;;;;;18.65;40.53;99636.45;;;;-50
2019/12/12 00:09:08;;;;;;;2.58;2.01;;;;;;;18.64;40.54;99634.25;;;;-50
2019/12/12 00:12:08;;;;;;;2.02;1.82;;;;;;;18.64;40.53;99637.33;;;;-50
2019/12/12 00:15:08;;;;;;;1.91;1.75;;;;;;;18.62;40.55;99634.84;;;;-50
2019/12/12 00:18:07;;;;;;;2.14;1.83;;;;;;;18.61;40.56;99633.64;;;;-50
2019/12/12 00:21:08;;;;;;;2.00;1.79;;;;;;;18.61;40.58;99626.05;;;;-50
2019/12/12 00:24:08;;;;;;;2.45;1.83;;;;;;;18.60;40.58;99622.17;;;;-50
2019/12/12 00:27:08;;;;;;;1.83;1.73;;;;;;;18.58;40.57;99622.34;;;;-50
2019/12/12 00:30:08;;;;;;;2.21;1.90;;;;;;;18.59;40.61;99622.94;;;;-50
2019/12/12 00:33:08;;;;;;;2.01;1.81;;;;;;;18.57;40.65;99626.78;;;;-50
2019/12/12 00:36:08;;;;;;;2.06;1.80;;;;;;;18.57;40.63;99628.16;;;;-50
2019/12/12 00:39:08;;;;;;;1.86;1.76;;;;;;;18.56;40.67;99624.27;;;;-50
2019/12/12 00:42:08;;;;;;;2.09;1.89;;;;;;;18.55;40.68;99625.57;;;;-50
2019/12/12 00:45:08;;;;;;;1.98;1.81;;;;;;;18.54;40.67;99623.36;;;;-50
2019/12/12 00:48:24;;;;;;;2.07;1.91;;;;;;;18.52;40.65;99619.02;;;;-50
2019/12/12 00:51:22;;;;;;;1.99;1.82;;;;;;;18.52;40.67;99618.45;;;;-50
2019/12/12 00:54:08;;;;;;;1.91;1.77;;;;;;;18.50;40.68;99611.86;;;;-50
2019/12/12 00:57:13;;;;;;;1.88;1.70;;;;;;;18.49;40.69;99601.45;;;;-50
2019/12/12 01:00:08;;;;;;;1.95;1.79;;;;;;;18.49;40.70;99606.47;;;;-50
2019/12/12 01:03:08;;;;;;;2.12;1.92;;;;;;;18.47;40.74;99603.39;;;;-50
2019/12/12 01:06:09;;;;;;;1.85;1.70;;;;;;;18.47;40.72;99608.07;;;;-50
2019/12/12 01:09:08;;;;;;;2.00;1.80;;;;;;;18.45;40.77;99607.27;;;;-50
2019/12/12 01:12:08;;;;;;;1.86;1.76;;;;;;;18.43;40.76;99605.69;;;;-50
2019/12/12 01:15:08;;;;;;;1.89;1.71;;;;;;;18.44;40.78;99600.38;;;;-50
2019/12/12 01:18:08;;;;;;;2.08;1.78;;;;;;;18.42;40.78;99599.14;;;;-50
2019/12/12 01:21:08;;;;;;;1.92;1.75;;;;;;;18.42;40.79;99594.80;;;;-50
2019/12/12 01:24:08;;;;;;;1.81;1.70;;;;;;;18.42;40.79;99588.34;;;;-49
2019/12/12 01:27:08;;;;;;;2.04;1.81;;;;;;;18.40;40.78;99587.70;;;;-50
2019/12/12 01:30:08;;;;;;;2.30;1.71;;;;;;;18.40;40.82;99584.26;;;;-50
2019/12/12 01:33:08;;;;;;;2.26;1.79;;;;;;;18.39;40.83;99580.88;;;;-50
2019/12/12 01:36:08;;;;;;;1.91;1.77;;;;;;;18.37;40.85;99577.91;;;;-50
2019/12/12 01:39:08;;;;;;;1.87;1.77;;;;;;;18.36;40.84;99576.86;;;;-49
2019/12/12 01:42:08;;;;;;;1.79;1.69;;;;;;;18.36;40.84;99574.09;;;;-50
2019/12/12 01:45:07;;;;;;;1.94;1.80;;;;;;;18.37;40.82;99576.06;;;;-50
2019/12/12 01:48:08;;;;;;;1.89;1.77;;;;;;;18.35;40.85;99573.82;;;;-50
2019/12/12 01:51:08;;;;;;;1.73;1.60;;;;;;;18.35;40.87;99571.48;;;;-50
2019/12/12 01:54:08;;;;;;;1.70;1.60;;;;;;;18.33;40.86;99574.09;;;;-50
2019/12/12 01:57:08;;;;;;;1.91;1.75;;;;;;;18.33;40.85;99573.98;;;;-50
2019/12/12 02:00:08;;;;;;;1.77;1.67;;;;;;;18.32;40.88;99572.81;;;;-50
2019/12/12 02:03:07;;;;;;;2.05;1.71;;;;;;;18.31;40.88;99567.93;;;;-50
2019/12/12 02:06:07;;;;;;;1.94;1.70;;;;;;;18.31;40.88;99557.20;;;;-50
2019/12/12 02:09:09;;;;;;;1.66;1.56;;;;;;;18.30;40.87;99553.25;;;;-50
2019/12/12 02:12:08;;;;;;;2.01;1.81;;;;;;;18.29;40.90;99550.71;;;;-50
2019/12/12 02:15:08;;;;;;;1.76;1.66;;;;;;;18.29;40.92;99552.16;;;;-49
2019/12/12 02:18:08;;;;;;;1.89;1.69;;;;;;;18.28;40.91;99544.39;;;;-50
2019/12/12 02:21:14;;;;;;;2.00;1.69;;;;;;;18.28;40.90;99542.26;;;;-49
2019/12/12 02:24:18;;;;;;;1.89;1.79;;;;;;;18.27;40.94;99536.61;;;;-50
2019/12/12 02:27:19;;;;;;;1.83;1.70;;;;;;;18.26;40.91;99526.98;;;;-50
2019/12/12 02:30:08;;;;;;;1.72;1.57;;;;;;;18.25;40.94;99530.52;;;;-50
2019/12/12 02:33:08;;;;;;;1.73;1.63;;;;;;;18.24;40.95;99529.02;;;;-50
2019/12/12 02:36:08;;;;;;;1.64;1.54;;;;;;;18.24;40.94;99529.19;;;;-50
2019/12/12 02:39:07;;;;;;;1.67;1.56;;;;;;;18.24;40.96;99525.03;;;;-50
2019/12/12 02:42:07;;;;;;;1.70;1.60;;;;;;;18.23;40.94;99516.55;;;;-50
2019/12/12 02:45:08;;;;;;;1.68;1.58;;;;;;;18.22;40.98;99506.25;;;;-48
2019/12/12 02:48:08;;;;;;;1.72;1.62;;;;;;;18.21;40.95;99503.64;;;;-50
2019/12/12 02:51:08;;;;;;;1.67;1.57;;;;;;;18.20;40.98;99499.66;;;;-49
2019/12/12 02:54:08;;;;;;;1.71;1.51;;;;;;;18.19;41.00;99494.72;;;;-50
2019/12/12 02:57:07;;;;;;;1.77;1.64;;;;;;;18.19;41.00;99494.89;;;;-50
2019/12/12 03:00:08;;;;;;;1.66;1.56;;;;;;;18.18;41.04;99486.73;;;;-50
2019/12/12 03:03:08;;;;;;;1.62;1.52;;;;;;;18.17;40.99;99487.03;;;;-50
2019/12/12 03:06:08;;;;;;;1.70;1.60;;;;;;;18.16;41.03;99483.59;;;;-50
2019/12/12 03:09:08;;;;;;;1.59;1.49;;;;;;;18.17;41.03;99477.17;;;;-49
2019/12/12 03:12:08;;;;;;;1.76;1.50;;;;;;;18.14;41.02;99473.73;;;;-54
2019/12/12 03:15:07;;;;;;;1.70;1.60;;;;;;;18.15;41.05;99470.75;;;;-50
2019/12/12 03:18:07;;;;;;;1.74;1.64;;;;;;;18.14;41.04;99469.05;;;;-50
2019/12/12 03:21:07;;;;;;;1.57;1.47;;;;;;;18.13;41.07;99467.84;;;;-54
2019/12/12 03:24:08;;;;;;;1.59;1.49;;;;;;;18.13;41.06;99466.67;;;;-49
2019/12/12 03:27:08;;;;;;;1.79;1.66;;;;;;;18.11;41.06;99463.38;;;;-50
2019/12/12 03:30:08;;;;;;;1.67;1.57;;;;;;;18.11;41.07;99465.88;;;;-50
2019/12/12 03:33:07;;;;;;;1.75;1.53;;;;;;;18.09;41.08;99461.30;;;;-54
2019/12/12 03:36:08;;;;;;;1.61;1.51;;;;;;;18.09;41.07;99464.64;;;;-50
2019/12/12 03:39:08;;;;;;;1.70;1.60;;;;;;;18.08;41.09;99462.00;;;;-50
2019/12/12 03:42:08;;;;;;;1.97;1.53;;;;;;;18.08;41.10;99460.77;;;;-55
2019/12/12 03:45:08;;;;;;;1.69;1.59;;;;;;;18.07;41.11;99459.95;;;;-50
2019/12/12 03:48:08;;;;;;;1.65;1.55;;;;;;;18.07;41.10;99459.45;;;;-54
2019/12/12 03:51:08;;;;;;;1.71;1.61;;;;;;;18.07;41.13;99456.28;;;;-50
2019/12/12 03:54:07;;;;;;;1.71;1.57;;;;;;;18.05;41.12;99448.70;;;;-47
2019/12/12 03:57:07;;;;;;;1.60;1.50;;;;;;;18.05;41.12;99450.36;;;;-50
2019/12/12 04:00:08;;;;;;;1.85;1.60;;;;;;;18.05;41.11;99449.20;;;;-50
2019/12/12 04:03:08;;;;;;;1.65;1.55;;;;;;;18.05;41.10;99446.02;;;;-54
2019/12/12 04:06:38;;;;;;;1.70;1.60;;;;;;;18.04;41.11;99441.31;;;;-49
2019/12/12 04:13:16;;;;;;;1.73;1.61;;;;;;;18.02;41.11;99438.67;;;;-50
2019/12/12 04:16:08;;;;;;;1.79;1.51;;;;;;;18.02;41.11;99439.84;;;;-49
2019/12/12 04:19:08;;;;;;;1.65;1.49;;;;;;;18.01;41.10;99447.89;;;;-47
2019/12/12 04:22:08;;;;;;;1.69;1.59;;;;;;;18.00;41.14;99449.96;;;;-50
2019/12/12 04:25:08;;;;;;;1.69;1.59;;;;;;;18.00;41.12;99452.97;;;;-54
2019/12/12 04:28:07;;;;;;;1.59;1.49;;;;;;;18.00;41.09;99445.39;;;;-54
2019/12/12 04:31:07;;;;;;;1.70;1.60;;;;;;;17.99;41.12;99440.34;;;;-49
2019/12/12 04:34:07;;;;;;;1.60;1.50;;;;;;;17.99;41.12;99440.57;;;;-50
2019/12/12 04:37:08;;;;;;;1.62;1.51;;;;;;;17.99;41.14;99442.08;;;;-50
2019/12/12 04:40:08;;;;;;;1.79;1.65;;;;;;;17.98;41.15;99445.31;;;;-47
2019/12/12 04:43:08;;;;;;;1.65;1.55;;;;;;;18.00;41.17;99445.19;;;;-47
2019/12/12 04:46:07;;;;;;;1.66;1.56;;;;;;;18.01;41.15;99446.89;;;;-50
2019/12/12 04:49:08;;;;;;;1.53;1.43;;;;;;;18.03;41.16;99447.45;;;;-55
2019/12/12 04:52:08;;;;;;;1.57;1.47;;;;;;;18.03;41.15;99449.39;;;;-47
2019/12/12 04:55:08;;;;;;;1.79;1.60;;;;;;;18.07;41.13;99449.03;;;;-48
2019/12/12 04:58:08;;;;;;;1.59;1.49;;;;;;;18.09;41.11;99446.76;;;;-47
2019/12/12 05:01:08;;;;;;;1.63;1.47;;;;;;;18.11;41.15;99446.16;;;;-47
2019/12/12 05:04:07;;;;;;;1.55;1.45;;;;;;;18.13;41.21;99441.72;;;;-47
2019/12/12 05:07:07;;;;;;;1.61;1.51;;;;;;;18.17;41.22;99442.58;;;;-47
2019/12/12 05:10:08;;;;;;;1.47;1.37;;;;;;;18.19;41.23;99445.39;;;;-54
2019/12/12 05:13:08;;;;;;;1.60;1.50;;;;;;;18.23;41.20;99450.54;;;;-55
2019/12/12 05:16:08;;;;;;;1.73;1.50;;;;;;;18.26;41.18;99451.61;;;;-55
2019/12/12 05:19:08;;;;;;;4.44;1.64;;;;;;;18.30;41.15;99446.16;;;;-55
2019/12/12 05:22:10;;;;;;;1.60;1.50;;;;;;;18.34;41.24;99445.09;;;;-55
2019/12/12 05:25:21;;;;;;;1.70;1.60;;;;;;;18.38;41.18;99441.94;;;;-55
2019/12/12 05:28:07;;;;;;;1.60;1.50;;;;;;;18.42;41.26;99446.75;;;;-54
2019/12/12 05:31:08;;;;;;;1.61;1.51;;;;;;;18.44;41.24;99440.06;;;;-55
2019/12/12 05:34:08;;;;;;;1.67;1.57;;;;;;;18.50;41.25;99441.66;;;;-55
2019/12/12 05:37:08;;;;;;;2.10;1.59;;;;;;;18.53;41.30;99436.67;;;;-54
2019/12/12 05:40:07;;;;;;;2.20;1.50;;;;;;;18.58;41.41;99436.80;;;;-54
2019/12/12 05:43:07;;;;;;;1.60;1.50;;;;;;;18.61;41.37;99435.05;;;;-55
2019/12/12 05:46:07;;;;;;;1.69;1.59;;;;;;;18.64;41.36;99442.94;;;;-54
2019/12/12 05:49:07;;;;;;;1.59;1.49;;;;;;;18.67;41.42;99442.88;;;;-55
2019/12/12 05:52:08;;;;;;;1.83;1.60;;;;;;;18.71;41.40;99447.17;;;;-54
2019/12/12 05:55:08;;;;;;;1.59;1.43;;;;;;;18.74;41.44;99450.78;;;;-55
2019/12/12 05:58:07;;;;;;;1.62;1.52;;;;;;;18.77;41.38;99450.77;;;;-54
2019/12/12 06:01:07;;;;;;;1.79;1.54;;;;;;;18.80;41.44;99449.97;;;;-55
2019/12/12 06:04:07;;;;;;;1.69;1.59;;;;;;;18.84;41.45;99448.48;;;;-54
2019/12/12 06:07:07;;;;;;;1.57;1.47;;;;;;;18.88;41.48;99448.07;;;;-53
2019/12/12 06:10:08;;;;;;;1.61;1.51;;;;;;;18.91;41.45;99447.33;;;;-56
2019/12/12 06:13:08;;;;;;;1.53;1.41;;;;;;;18.93;41.46;99451.67;;;;-55
2019/12/12 06:16:07;;;;;;;1.57;1.41;;;;;;;18.96;41.44;99454.00;;;;-54
2019/12/12 06:19:16;;;;;;;1.59;1.49;;;;;;;18.99;41.45;99451.19;;;;-54
2019/12/12 06:22:07;;;;;;;2.50;1.50;;;;;;;19.02;41.46;99448.66;;;;-54
2019/12/12 06:25:07;;;;;;;1.77;1.50;;;;;;;19.05;41.46;99446.98;;;;-54
2019/12/12 06:28:08;;;;;;;1.50;1.40;;;;;;;19.08;41.45;99445.50;;;;-54
2019/12/12 06:31:08;;;;;;;1.60;1.50;;;;;;;19.10;41.44;99448.23;;;;-54
2019/12/12 06:34:07;;;;;;;1.95;1.57;;;;;;;19.13;41.46;99442.44;;;;-54
2019/12/12 06:37:07;;;;;;;1.67;1.53;;;;;;;19.15;41.43;99442.45;;;;-55
2019/12/12 06:40:07;;;;;;;1.57;1.47;;;;;;;19.18;41.42;99447.73;;;;-54
2019/12/12 06:43:08;;;;;;;1.71;1.59;;;;;;;19.20;41.40;99443.55;;;;-54
2019/12/12 06:46:08;;;;;;;2.07;1.55;;;;;;;19.20;41.40;99441.03;;;;-55
2019/12/12 06:49:08;;;;;;;1.85;1.50;;;;;;;19.23;41.37;99446.30;;;;-54
2019/12/12 06:52:07;;;;;;;1.63;1.48;;;;;;;19.25;41.37;99446.03;;;;-55
2019/12/12 06:55:07;;;;;;;1.70;1.60;;;;;;;19.27;41.36;99445.09;;;;-54
2019/12/12 06:58:08;;;;;;;1.61;1.49;;;;;;;19.29;41.36;99442.63;;;;-54
2019/12/12 07:01:07;;;;;;;1.61;1.41;;;;;;;19.30;41.33;99446.51;;;;-54
2019/12/12 07:04:07;;;;;;;1.50;1.40;;;;;;;19.32;41.29;99447.91;;;;-55
2019/12/12 07:07:08;;;;;;;1.55;1.45;;;;;;;19.34;41.30;99445.19;;;;-54
2019/12/12 07:10:07;;;;;;;1.60;1.50;;;;;;;19.36;41.29;99445.05;;;;-55
2019/12/12 07:13:07;;;;;;;1.69;1.51;;;;;;;19.37;41.29;99446.68;;;;-54
2019/12/12 07:18:28;;;;;;;2.15;1.48;;;;;;;19.38;41.23;99455.34;;;;-54
2019/12/12 07:19:08;;;;;;;1.91;1.39;;;;;;;19.39;41.21;99458.13;;;;-55
2019/12/12 07:22:08;;;;;;;1.64;1.49;;;;;;;19.39;41.21;99455.95;;;;-54
2019/12/12 07:25:08;;;;;;;1.69;1.54;;;;;;;19.40;41.17;99458.31;;;;-54
2019/12/12 07:28:08;;;;;;;1.45;1.29;;;;;;;19.41;41.20;99460.59;;;;-54
2019/12/12 07:31:07;;;;;;;1.51;1.40;;;;;;;19.42;41.15;99461.45;;;;-54
2019/12/12 07:34:07;;;;;;;2.32;1.45;;;;;;;19.42;41.13;99459.75;;;;-55
2019/12/12 07:37:07;;;;;;;2.14;1.41;;;;;;;19.45;41.11;99460.14;;;;-54
2019/12/12 07:40:07;;;;;;;1.45;1.35;;;;;;;19.46;41.12;99465.76;;;;-54
2019/12/12 07:43:08;;;;;;;1.70;1.53;;;;;;;19.47;41.12;99461.70;;;;-55
2019/12/12 07:46:08;;;;;;;1.54;1.40;;;;;;;19.48;41.10;99463.91;;;;-54
2019/12/12 07:49:07;;;;;;;1.86;1.49;;;;;;;19.50;41.12;99466.55;;;;-54
2019/12/12 07:52:07;;;;;;;1.77;1.49;;;;;;;19.51;41.10;99464.83;;;;-54
2019/12/12 07:55:07;;;;;;;1.85;1.53;;;;;;;19.53;41.13;99464.78;;;;-54
2019/12/12 07:58:08;;;;;;;1.64;1.44;;;;;;;19.54;41.12;99468.77;;;;-54
2019/12/12 08:01:08;;;;;;;1.60;1.50;;;;;;;19.56;41.10;99467.98;;;;-54
2019/12/12 08:04:52;;;;;;;4.09;1.60;;;;;;;19.58;41.08;99463.69;;;;-57
2019/12/12 08:07:07;;;;;;;2.48;1.50;;;;;;;19.62;41.53;99468.66;;;;-53
2019/12/12 08:10:07;;;;;;;4.84;1.60;;;;;;;19.65;41.73;99467.30;;;;-56
2019/12/12 08:13:07;;;;;;;3.96;1.43;;;;;;;19.71;41.34;99469.47;;;;-52
2019/12/12 08:16:07;;;;;;;2.87;1.57;;;;;;;19.72;41.54;99471.11;;;;-55
2019/12/12 08:19:07;;;;;;;5.89;1.61;;;;;;;19.76;41.63;99466.27;;;;-53
2019/12/12 08:22:08;;;;;;;2.89;1.40;;;;;;;19.79;41.74;99461.66;;;;-49
2019/12/12 08:25:07;;;;;;;2.75;1.49;;;;;;;19.82;41.69;99456.27;;;;-60
2019/12/12 08:28:07;;;;;;;3.61;1.47;;;;;;;19.86;41.46;99466.94;;;;-55
2019/12/12 08:31:07;;;;;;;2.27;1.52;;;;;;;19.90;41.79;99468.22;;;;-47
2019/12/12 08:34:07;;;;;;;2.39;1.50;;;;;;;19.92;41.48;99469.52;;;;-61
2019/12/12 08:37:16;;;;;;;2.43;1.58;;;;;;;19.96;41.71;99474.91;;;;-48
2019/12/12 08:40:08;;;;;;;2.27;1.71;;;;;;;19.99;41.75;99472.84;;;;-47
2019/12/12 08:43:10;;;;;;;5.95;1.73;;;;;;;20.06;42.02;99474.52;;;;-50
2019/12/12 08:46:07;;;;;;;5.71;1.43;;;;;;;20.06;41.61;99475.45;;;;-45
2019/12/12 08:49:08;;;;;;;1.80;1.35;;;;;;;20.10;41.77;99473.88;;;;-42
2019/12/12 08:52:07;;;;;;;2.99;1.55;;;;;;;20.12;41.40;99476.95;;;;-47
2019/12/12 08:55:07;;;;;;;2.81;1.49;;;;;;;20.10;41.15;99470.09;;;;-47
2019/12/12 08:58:07;;;;;;;2.71;1.49;;;;;;;20.08;41.11;99470.97;;;;-46
2019/12/12 09:01:07;;;;;;;2.53;1.34;;;;;;;20.08;40.99;99468.97;;;;-46
2019/12/12 09:04:07;;;;;;;2.26;1.43;;;;;;;20.08;41.00;99463.59;;;;-46
2019/12/12 09:07:07;;;;;;;1.46;1.35;;;;;;;20.07;41.02;99467.16;;;;-47
2019/12/12 09:10:07;;;;;;;2.45;1.47;;;;;;;20.10;41.23;99471.94;;;;-51
2019/12/12 09:13:07;;;;;;;3.72;1.71;;;;;;;20.11;41.43;99473.90;;;;-50
2019/12/12 09:16:08;;;;;;;2.38;1.45;;;;;;;20.13;41.36;99473.52;;;;-50
2019/12/12 09:19:08;;;;;;;3.05;1.48;;;;;;;20.15;41.70;99475.25;;;;-48
2019/12/12 09:22:07;;;;;;;2.15;1.48;;;;;;;20.16;41.56;99471.18;;;;-47
2019/12/12 09:25:09;;;;;;;1.47;1.37;;;;;;;20.20;41.44;99472.09;;;;-43
2019/12/12 09:28:07;;;;;;;4.75;1.59;;;;;;;20.22;41.40;99466.14;;;;-49
2019/12/12 09:31:08;;;;;;;2.29;1.50;;;;;;;20.25;41.55;99467.02;;;;-48
2019/12/12 09:34:07;;;;;;;2.17;1.45;;;;;;;20.26;41.35;99471.34;;;;-45
2019/12/12 09:37:07;;;;;;;2.13;1.49;;;;;;;20.29;41.72;99471.42;;;;-53
2019/12/12 09:40:07;;;;;;;2.29;1.40;;;;;;;20.31;41.52;99469.79;;;;-43
2019/12/12 09:43:07;;;;;;;2.51;1.37;;;;;;;20.33;41.62;99472.59;;;;-46
2019/12/12 09:46:07;;;;;;;3.13;1.50;;;;;;;20.34;41.27;99466.34;;;;-50
2019/12/12 09:49:07;;;;;;;1.55;1.42;;;;;;;20.36;41.15;99468.14;;;;-49
2019/12/12 09:52:07;;;;;;;5.11;1.42;;;;;;;20.38;41.05;99467.34;;;;-50
2019/12/12 09:55:08;;;;;;;1.63;1.34;;;;;;;20.36;41.08;99459.42;;;;-54
2019/12/12 09:58:07;;;;;;;2.38;1.41;;;;;;;20.34;41.02;99463.16;;;;-54
2019/12/12 10:01:07;;;;;;;2.06;1.43;;;;;;;20.35;40.99;99464.76;;;;-50
2019/12/12 10:04:07;;;;;;;1.96;1.42;;;;;;;20.34;40.97;99464.23;;;;-48
2019/12/12 10:07:07;;;;;;;2.27;1.31;;;;;;;20.34;40.86;99463.16;;;;-47
2019/12/12 10:10:07;;;;;;;1.53;1.42;;;;;;;20.35;40.92;99468.37;;;;-47
2019/12/12 10:13:08;;;;;;;1.50;1.31;;;;;;;20.34;40.85;99459.37;;;;-48
2019/12/12 10:16:07;;;;;;;1.53;1.28;;;;;;;20.35;40.82;99459.48;;;;-47
2019/12/12 10:19:07;;;;;;;1.91;1.35;;;;;;;20.34;40.84;99456.61;;;;-47
2019/12/12 10:22:48;;;;;;;1.49;1.33;;;;;;;20.36;40.72;99455.73;;;;-55
2019/12/12 10:31:11;;;;;;;2.69;1.23;;;;;;;20.43;40.73;99444.56;;;;-51
2019/12/12 10:34:07;;;;;;;2.43;1.35;;;;;;;20.42;40.62;99433.80;;;;-51
2019/12/12 10:37:07;;;;;;;4.40;1.51;;;;;;;20.42;40.62;99434.91;;;;-50
2019/12/12 10:40:07;;;;;;;1.71;1.44;;;;;;;20.41;40.54;99429.52;;;;-50
2019/12/12 10:43:07;;;;;;;3.79;1.49;;;;;;;20.41;40.55;99429.95;;;;-49
2019/12/12 10:46:07;;;;;;;2.03;1.33;;;;;;;20.40;40.56;99421.21;;;;-49
2019/12/12 10:49:07;;;;;;;2.28;1.60;;;;;;;20.41;40.67;99421.47;;;;-53
2019/12/12 10:52:07;;;;;;;1.46;1.30;;;;;;;20.41;40.69;99420.97;;;;-53
2019/12/12 10:55:07;;;;;;;4.35;1.34;;;;;;;20.40;40.71;99423.39;;;;-53
2019/12/12 10:58:07;;;;;;;1.69;1.33;;;;;;;20.40;40.67;99418.77;;;;-49
2019/12/12 11:01:07;;;;;;;2.01;1.32;;;;;;;20.40;40.66;99419.88;;;;-48
2019/12/12 11:04:07;;;;;;;2.47;1.28;;;;;;;20.41;40.67;99417.45;;;;-48
2019/12/12 11:07:07;;;;;;;1.71;1.30;;;;;;;20.42;40.69;99418.31;;;;-49
2019/12/12 11:10:07;;;;;;;3.04;1.41;;;;;;;20.41;40.67;99411.84;;;;-49
2019/12/12 11:13:07;;;;;;;1.34;1.21;;;;;;;20.43;40.65;99410.12;;;;-49
2019/12/12 11:16:07;;;;;;;1.57;1.29;;;;;;;20.43;40.69;99402.91;;;;-49
2019/12/12 11:19:07;;;;;;;2.35;1.32;;;;;;;20.43;40.69;99399.28;;;;-49
2019/12/12 11:22:09;;;;;;;1.31;1.21;;;;;;;20.44;40.69;99396.39;;;;-49
2019/12/12 11:25:12;;;;;;;1.46;1.35;;;;;;;20.44;40.67;99395.45;;;;-48
2019/12/12 11:28:20;;;;;;;2.28;1.23;;;;;;;20.45;40.65;99392.39;;;;-49
2019/12/12 11:31:07;;;;;;;1.61;1.17;;;;;;;20.46;40.64;99384.53;;;;-48
2019/12/12 11:34:07;;;;;;;1.36;1.13;;;;;;;20.46;40.67;99386.47;;;;-49
2019/12/12 11:37:07;;;;;;;1.40;1.30;;;;;;;20.47;40.66;99376.50;;;;-48
2019/12/12 11:40:07;;;;;;;1.36;1.24;;;;;;;20.48;40.66;99384.21;;;;-48
2019/12/12 11:43:07;;;;;;;1.67;1.36;;;;;;;20.48;40.66;99379.62;;;;-49
2019/12/12 11:46:07;;;;;;;1.55;1.21;;;;;;;20.48;40.65;99373.10;;;;-49
2019/12/12 11:49:07;;;;;;;1.19;1.09;;;;;;;20.49;40.65;99376.31;;;;-48
2019/12/12 11:52:07;;;;;;;1.48;1.18;;;;;;;20.49;40.67;99363.63;;;;-49
2019/12/12 11:55:07;;;;;;;1.24;1.11;;;;;;;20.50;40.67;99357.12;;;;-49
2019/12/12 11:58:07;;;;;;;1.41;1.25;;;;;;;20.50;40.65;99358.03;;;;-49
2019/12/12 12:01:07;;;;;;;1.29;1.19;;;;;;;20.50;40.63;99357.72;;;;-49
2019/12/12 12:04:07;;;;;;;1.71;1.13;;;;;;;20.50;40.65;99353.19;;;;-49
2019/12/12 12:07:07;;;;;;;1.40;1.30;;;;;;;20.52;40.60;99351.30;;;;-49
2019/12/12 12:10:07;;;;;;;1.54;1.29;;;;;;;20.52;40.66;99347.08;;;;-49
2019/12/12 12:13:07;;;;;;;3.53;1.38;;;;;;;20.52;40.73;99349.28;;;;-50
2019/12/12 12:16:07;;;;;;;4.41;1.73;;;;;;;20.53;40.07;99343.77;;;;-49
2019/12/12 12:19:07;;;;;;;2.67;1.41;;;;;;;20.56;40.58;99339.81;;;;-45
2019/12/12 12:22:07;;;;;;;1.89;1.40;;;;;;;20.61;40.84;99331.00;;;;-46
2019/12/12 12:25:07;;;;;;;2.59;1.30;;;;;;;20.64;40.94;99325.80;;;;-51
2019/12/12 12:28:07;;;;;;;2.01;1.21;;;;;;;20.65;40.71;99322.63;;;;-45
2019/12/12 12:31:07;;;;;;;1.65;1.19;;;;;;;20.68;41.07;99321.86;;;;-47
2019/12/12 12:34:07;;;;;;;2.27;1.44;;;;;;;20.70;40.85;99317.70;;;;-46
2019/12/12 12:37:07;;;;;;;3.07;1.39;;;;;;;20.71;40.66;99320.31;;;;-51
2019/12/12 12:40:07;;;;;;;1.96;1.43;;;;;;;20.73;40.87;99320.19;;;;-49
2019/12/12 12:43:07;;;;;;;2.57;1.36;;;;;;;20.76;41.17;99315.81;;;;-52
2019/12/12 12:46:09;;;;;;;4.53;1.31;;;;;;;20.79;41.30;99311.92;;;;-45
2019/12/12 12:49:08;;;;;;;1.69;1.23;;;;;;;20.79;41.08;99299.84;;;;-52
2019/12/12 12:52:07;;;;;;;2.47;1.27;;;;;;;20.81;40.94;99295.62;;;;-55
2019/12/12 12:55:07;;;;;;;6.09;1.39;;;;;;;20.82;40.93;99290.53;;;;-48
2019/12/12 12:58:07;;;;;;;2.76;1.23;;;;;;;20.84;41.16;99285.52;;;;-52
2019/12/12 13:01:07;;;;;;;5.54;1.64;;;;;;;20.84;41.04;99283.77;;;;-51
2019/12/12 13:04:07;;;;;;;6.80;1.79;;;;;;;20.84;40.18;99280.34;;;;-51
2019/12/12 13:07:07;;;;;;;2.50;1.58;;;;;;;20.82;40.53;99278.89;;;;-51
2019/12/12 13:10:07;;;;;;;3.45;1.50;;;;;;;20.81;40.54;99274.67;;;;-51
2019/12/12 13:13:07;;;;;;;1.89;1.42;;;;;;;20.81;40.56;99270.69;;;;-51
2019/12/12 13:16:07;;;;;;;2.23;1.38;;;;;;;20.80;40.62;99270.60;;;;-51
2019/12/12 13:19:07;;;;;;;3.09;1.53;;;;;;;20.82;40.73;99256.38;;;;-49
2019/12/12 13:22:07;;;;;;;3.90;1.61;;;;;;;20.82;40.66;99254.36;;;;-58
2019/12/12 13:25:07;;;;;;;6.29;2.07;;;;;;;20.83;40.64;99254.91;;;;-50
2019/12/12 13:28:07;;;;;;;7.81;1.97;;;;;;;20.85;40.60;99249.75;;;;-48
2019/12/12 13:31:07;;;;;;;4.21;1.75;;;;;;;20.84;40.43;99240.72;;;;-48
2019/12/12 13:34:07;;;;;;;4.34;1.67;;;;;;;20.84;40.49;99239.70;;;;-48
2019/12/12 13:37:07;;;;;;;3.25;1.71;;;;;;;20.82;40.48;99239.36;;;;-48
2019/12/12 13:40:07;;;;;;;4.96;2.10;;;;;;;20.80;40.12;99235.39;;;;-50
2019/12/12 13:43:07;;;;;;;3.64;2.24;;;;;;;20.81;40.08;99226.89;;;;-50
2019/12/12 13:46:07;;;;;;;4.29;1.75;;;;;;;20.80;40.24;99223.45;;;;-50
2019/12/12 13:49:07;;;;;;;5.04;1.83;;;;;;;20.79;40.35;99213.86;;;;-50
2019/12/12 13:52:07;;;;;;;3.69;1.79;;;;;;;20.83;40.41;99212.67;;;;-50
2019/12/12 13:55:07;;;;;;;4.34;2.01;;;;;;;20.83;40.66;99211.42;;;;-48
2019/12/12 13:58:07;;;;;;;2.67;1.79;;;;;;;20.88;40.72;99204.38;;;;-49
2019/12/12 14:01:07;;;;;;;4.27;1.76;;;;;;;20.84;40.50;99198.22;;;;-49
2019/12/12 14:04:07;;;;;;;4.02;1.91;;;;;;;20.84;40.53;99194.33;;;;-49
2019/12/12 14:07:07;;;;;;;2.60;1.75;;;;;;;20.83;40.45;99194.00;;;;-51
2019/12/12 14:10:07;;;;;;;4.83;1.90;;;;;;;20.83;40.55;99196.33;;;;-48
2019/12/12 14:13:07;;;;;;;3.71;1.71;;;;;;;20.84;40.61;99190.14;;;;-51
2019/12/12 14:16:07;;;;;;;5.32;1.89;;;;;;;20.84;40.61;99181.75;;;;-51
2019/12/12 14:19:07;;;;;;;3.79;1.93;;;;;;;20.86;40.83;99175.34;;;;-47
2019/12/12 14:22:07;;;;;;;4.59;1.81;;;;;;;20.87;40.58;99178.52;;;;-46
2019/12/12 14:25:07;;;;;;;3.40;1.81;;;;;;;20.87;40.56;99175.36;;;;-45
2019/12/12 14:28:07;;;;;;;3.12;1.72;;;;;;;20.85;40.52;99164.58;;;;-46
2019/12/12 14:31:07;;;;;;;3.55;1.78;;;;;;;20.85;40.51;99164.65;;;;-49
2019/12/12 14:34:09;;;;;;;3.41;1.57;;;;;;;20.84;40.51;99167.52;;;;-45
2019/12/12 14:37:16;;;;;;;3.13;1.69;;;;;;;20.84;40.48;99156.98;;;;-46
2019/12/12 14:40:07;;;;;;;2.96;1.83;;;;;;;20.83;40.52;99156.25;;;;-45
2019/12/12 14:43:07;;;;;;;2.49;1.70;;;;;;;20.83;40.48;99153.80;;;;-53
2019/12/12 14:46:07;;;;;;;2.68;1.60;;;;;;;20.83;40.51;99147.86;;;;-52
2019/12/12 14:49:07;;;;;;;1.74;1.50;;;;;;;20.82;40.50;99144.15;;;;-52
2019/12/12 14:52:07;;;;;;;3.17;1.54;;;;;;;20.83;40.52;99138.77;;;;-53
2019/12/12 14:55:07;;;;;;;2.59;1.69;;;;;;;20.83;40.52;99137.17;;;;-52
2019/12/12 14:58:07;;;;;;;2.71;1.66;;;;;;;20.82;40.54;99130.30;;;;-53
2019/12/12 15:01:08;;;;;;;1.78;1.43;;;;;;;20.83;40.51;99131.42;;;;-53
2019/12/12 15:04:07;;;;;;;2.45;1.66;;;;;;;20.82;40.53;99127.88;;;;-53
2019/12/12 15:07:07;;;;;;;1.95;1.63;;;;;;;20.83;40.52;99128.27;;;;-53
2019/12/12 15:10:07;;;;;;;2.52;1.41;;;;;;;20.83;40.53;99123.34;;;;-53
2019/12/12 15:13:07;;;;;;;1.87;1.41;;;;;;;20.84;40.51;99118.59;;;;-53
2019/12/12 15:16:07;;;;;;;2.39;1.51;;;;;;;20.83;40.50;99117.63;;;;-52
2019/12/12 15:19:07;;;;;;;3.28;1.59;;;;;;;20.83;40.52;99118.23;;;;-48
2019/12/12 15:22:07;;;;;;;2.11;1.47;;;;;;;20.83;40.53;99111.83;;;;-48
2019/12/12 15:25:07;;;;;;;2.08;1.44;;;;;;;20.83;40.54;99106.48;;;;-48
2019/12/12 15:28:07;;;;;;;1.70;1.37;;;;;;;20.82;40.57;99101.03;;;;-48
2019/12/12 15:31:07;;;;;;;2.14;1.41;;;;;;;20.83;40.55;99096.06;;;;-49
2019/12/12 15:34:07;;;;;;;1.69;1.49;;;;;;;20.82;40.57;99097.38;;;;-49
2019/12/12 15:37:07;;;;;;;1.56;1.40;;;;;;;20.82;40.58;99094.65;;;;-49
2019/12/12 15:40:07;;;;;;;2.39;1.40;;;;;;;20.82;40.59;99081.90;;;;-48
2019/12/12 15:43:07;;;;;;;1.43;1.33;;;;;;;20.82;40.60;99079.28;;;;-53
2019/12/12 15:46:07;;;;;;;1.57;1.34;;;;;;;20.83;40.58;99081.46;;;;-53
2019/12/12 15:49:07;;;;;;;1.53;1.25;;;;;;;20.82;40.60;99076.53;;;;-53
2019/12/12 15:52:07;;;;;;;2.53;1.39;;;;;;;20.83;40.58;99068.30;;;;-53
2019/12/12 15:55:07;;;;;;;1.53;1.40;;;;;;;20.82;40.61;99061.16;;;;-53
2019/12/12 15:58:10;;;;;;;1.64;1.38;;;;;;;20.82;40.65;99061.27;;;;-53
2019/12/12 16:01:17;;;;;;;2.15;1.43;;;;;;;20.82;40.60;99055.13;;;;-53
2019/12/12 16:04:07;;;;;;;1.93;1.54;;;;;;;20.82;40.64;99041.30;;;;-53
2019/12/12 16:07:07;;;;;;;1.74;1.29;;;;;;;20.83;40.60;99037.33;;;;-53
2019/12/12 16:10:07;;;;;;;2.05;1.55;;;;;;;20.82;39.79;99030.63;;;;-52
2019/12/12 16:13:07;;;;;;;5.86;1.78;;;;;;;20.86;40.63;99029.52;;;;-45
2019/12/12 16:16:07;;;;;;;4.46;1.71;;;;;;;20.88;40.76;99023.92;;;;-46
2019/12/12 16:19:07;;;;;;;4.65;1.51;;;;;;;20.90;41.15;99020.69;;;;-48
2019/12/12 16:22:07;;;;;;;5.05;1.72;;;;;;;20.94;42.14;99014.55;;;;-50
2019/12/12 16:25:07;;;;;;;2.31;1.45;;;;;;;20.96;42.38;99011.62;;;;-52
2019/12/12 16:28:07;;;;;;;2.35;1.47;;;;;;;21.02;42.16;99011.63;;;;-53
2019/12/12 16:31:07;;;;;;;2.04;1.46;;;;;;;21.00;41.52;99012.02;;;;-52
2019/12/12 16:34:07;;;;;;;5.67;1.64;;;;;;;21.00;41.48;99011.35;;;;-51
2019/12/12 16:37:07;;;;;;;3.21;1.61;;;;;;;21.01;41.39;99007.76;;;;-52
2019/12/12 16:40:07;;;;;;;2.97;1.45;;;;;;;21.05;41.54;99003.00;;;;-59
2019/12/12 16:43:07;;;;;;;3.94;1.59;;;;;;;21.05;41.52;98998.76;;;;-53
2019/12/12 16:46:07;;;;;;;2.52;1.39;;;;;;;21.06;41.36;98990.77;;;;-52
2019/12/12 16:49:07;;;;;;;2.60;1.37;;;;;;;21.05;41.37;98991.61;;;;-54
2019/12/12 16:52:07;;;;;;;1.89;1.40;;;;;;;21.07;41.54;98983.84;;;;-61
2019/12/12 16:55:07;;;;;;;2.31;1.60;;;;;;;21.10;41.79;98974.47;;;;-53
2019/12/12 16:58:07;;;;;;;3.11;1.48;;;;;;;21.11;42.01;98968.87;;;;-54
2019/12/12 17:01:07;;;;;;;2.06;1.45;;;;;;;21.11;41.60;98963.33;;;;-55
2019/12/12 17:04:07;;;;;;;2.15;1.46;;;;;;;21.11;41.79;98952.59;;;;-56